De Winton South Calgary Airport

CEH4 · 艾伯塔, 加拿大

使用的METAR站距离机场19 NM。
罗盘
风向 的 风向 的 风向 到 风向 250° De Winton South Calgary Airport 10/28
风向 到 风: 11 kt, 阵阵 31 kt, 4 beaufort

7 kt

9 kt
改变
0 ft 2.000 4.000 6.000 8.000 10.000
Cloud Cloud Cloud Cloud
SCT 8.400
METAR CYYC 121800Z 25011G31KT 220V290 40SM SCT084 18/M04 A2982 RMK AC4 ACC ASOCTD SLP101 DENSITY ALT 4900FT

METAR De Winton South Calgary Airport - CEH4

De Winton South Calgary Airport是,加拿大中的小机场。 该机场位于纬度50,82052和经度-113,82165。 该机场有2条跑道: 10/28 和 16/34. 该机场的伪ICAO代码为CEH4。 机场在Edmonton FIR中。

该航空气象观测是针对Calgary International Airport在2024年6月12日 12:00, 当地时间进行的。

机场观察

风向为250°,速度为11 kt。 已测得31 kt的阵风。 风向在220°和290°之间变化。

可见度为40 mi。

有疏云,零星散落的云朵在8.400 ft的高度。 没有观察到天花板。

温度和风寒是18 °C。 露点为-4 °C,相对湿度为22%。 海平面上的气压为29,82 inHg (QNH)。

白天

今天,太阳从05:21升起,在21:49降落。 这适用于De Winton South Calgary Airport,世界夏令时可能有所不同。 当地时间与世界标准时间之间的时差为-6 小时。 夏令时目前正在进行中。

公司介绍

我们没有关于这个机场的公司信息。

体会

到Vliegles.nl去找飞行课程,跳伞和其他飞行体验。 浏览页面,了解De Winton South Calgary Airport附近所有可用的活动。 你也可以使用搜索功能来寻找你所在地附近的特定飞行课程、跳伞或其他飞行体验。

跑道

Id 标题 侧风 逆风 侧风 %
10/28 123°-303° 9-25 kt 7-19 kt 80 %
16/34 180°-360° 10-29 kt 4-11 kt 94 %

逆风成分最大的方向会被突出显示,并用于横风计算。 这并不一定意味着这个方向在使用。

乌云

8.400 ft SCT 疏云,零星散落的云朵

温度 & 天气

温度 18 °C
露点 -4 °C
相对湿度 22%
Kp-index 0 (0-9)

评论

SLP101海平面压力为29,83 inHg (29,83 inHg)
AC4 ACC ASOCTD DENSITY ALT 4900FT

白天

日出
05:20
中午
13:36
日落
21:51 (9:13)

小工具

你想在你的网站上有一个关于De Winton South Calgary Airport的当前航空天气(METAR)的小部件吗?

显示HTML代码
报告变更